createdAt,value
2022-11-08T00:01:47.080Z,75.50
2022-11-08T00:04:17.599Z,74.25
2022-11-08T00:07:04.068Z,68.50
2022-11-08T00:09:50.555Z,74.22
2022-11-08T00:12:36.689Z,78.40
2022-11-08T00:15:06.600Z,76.22
2022-11-08T00:17:37.138Z,77.85
2022-11-08T00:20:07.205Z,72.18
2022-11-08T00:22:36.172Z,75.82
2022-11-08T00:25:05.088Z,80.78
2022-11-08T00:27:33.776Z,79.35
2022-11-08T00:30:02.321Z,77.80
2022-11-08T00:32:31.102Z,80.78
2022-11-08T00:35:01.131Z,72.90
2022-11-08T00:37:29.914Z,75.50
2022-11-08T00:39:58.437Z,73.63
2022-11-08T00:42:27.091Z,72.05
2022-11-08T00:44:55.634Z,68.03
2022-11-08T00:47:24.298Z,76.32
2022-11-08T00:49:52.853Z,77.30
2022-11-08T00:52:23.098Z,82.45
2022-11-08T00:54:51.794Z,79.37
2022-11-08T00:57:22.378Z,69.82
2022-11-08T01:00:00.286Z,66.68
2022-11-08T01:02:28.876Z,80.30
2022-11-08T01:04:57.573Z,75.60
2022-11-08T01:07:27.645Z,75.07
2022-11-08T01:09:56.349Z,74.93
2022-11-08T01:12:24.902Z,74.18
2022-11-08T01:14:54.400Z,68.75
2022-11-08T01:17:23.406Z,76.30
2022-11-08T01:19:52.167Z,76.18
2022-11-08T01:22:20.772Z,68.75
2022-11-08T01:24:50.999Z,81.30
2022-11-08T01:27:19.683Z,71.03
2022-11-08T01:29:48.250Z,77.25
2022-11-08T01:32:16.948Z,76.38
2022-11-08T01:34:45.636Z,78.63
2022-11-08T01:37:14.325Z,71.90
2022-11-08T01:39:42.907Z,76.82
2022-11-08T01:42:13.106Z,72.43
2022-11-08T01:44:59.653Z,67.85
2022-11-08T01:47:28.343Z,76.97
2022-11-08T01:50:00.293Z,74.43
2022-11-08T01:52:33.353Z,71.88
2022-11-08T01:55:12.548Z,73.93
2022-11-08T01:57:49.323Z,71.88
2022-11-08T02:00:19.020Z,66.28
2022-11-08T02:02:51.463Z,76.03
2022-11-08T02:05:27.541Z,69.13
2022-11-08T02:08:00.631Z,73.53
2022-11-08T02:10:35.138Z,68.95
2022-11-08T02:13:10.748Z,67.22
2022-11-08T02:15:42.436Z,65.75
2022-11-08T02:18:11.578Z,67.40
2022-11-08T02:20:44.622Z,70.03
2022-11-08T02:23:20.163Z,71.28
2022-11-08T02:25:50.351Z,73.75
2022-11-08T02:28:19.217Z,67.63
2022-11-08T02:30:48.175Z,71.07
2022-11-08T02:33:18.192Z,71.95
2022-11-08T02:35:50.376Z,64.00
2022-11-08T02:38:20.381Z,65.78
2022-11-08T02:40:52.368Z,62.47
2022-11-08T02:43:21.292Z,74.90
2022-11-08T02:45:50.558Z,60.13
2022-11-08T02:48:20.132Z,78.13
2022-11-08T02:50:49.042Z,71.70
2022-11-08T02:53:18.038Z,69.90
2022-11-08T02:55:46.986Z,74.82
2022-11-08T02:58:17.353Z,69.57
2022-11-08T03:00:46.110Z,61.72
2022-11-08T03:03:14.824Z,67.38
2022-11-08T03:05:44.164Z,62.75
2022-11-08T03:08:12.862Z,66.32
2022-11-08T03:10:41.469Z,60.55
2022-11-08T03:13:10.237Z,54.72
2022-11-08T03:15:40.242Z,59.67
2022-11-08T03:18:09.274Z,57.87
2022-11-08T03:20:37.921Z,52.22
2022-11-08T03:23:07.920Z,55.60
2022-11-08T03:25:36.661Z,53.13
2022-11-08T03:28:06.430Z,55.10
2022-11-08T03:30:35.936Z,57.22
2022-11-08T03:33:06.113Z,57.83
2022-11-08T03:35:34.756Z,48.63
2022-11-08T03:38:03.488Z,51.58
2022-11-08T03:40:32.432Z,55.88
2022-11-08T03:43:00.990Z,58.72
2022-11-08T03:45:29.732Z,55.83
2022-11-08T03:47:58.337Z,61.13
2022-11-08T03:50:28.510Z,64.13
2022-11-08T03:52:57.804Z,54.10
2022-11-08T03:55:28.799Z,48.78
2022-11-08T04:00:28.744Z,53.85
2022-11-08T04:03:03.361Z,49.05
2022-11-08T04:05:33.940Z,53.05
2022-11-08T04:08:06.301Z,54.33
2022-11-08T04:10:35.439Z,53.03
2022-11-08T04:13:21.481Z,50.95
2022-11-08T04:15:55.774Z,55.17
2022-11-08T04:18:42.104Z,47.35
2022-11-08T04:21:20.601Z,49.15
2022-11-08T04:23:50.601Z,50.63
2022-11-08T04:26:20.501Z,44.97
2022-11-08T04:28:49.448Z,47.40
2022-11-08T04:31:21.752Z,49.13
2022-11-08T04:33:50.891Z,49.67
2022-11-08T04:36:21.159Z,41.95
2022-11-08T04:38:51.311Z,44.63
2022-11-08T04:41:22.687Z,40.43
2022-11-08T04:43:52.983Z,43.28
2022-11-08T04:46:23.960Z,35.57
2022-11-08T04:48:54.624Z,45.67
2022-11-08T04:51:27.843Z,46.97
2022-11-08T04:53:57.958Z,46.47
2022-11-08T04:56:28.308Z,40.60
2022-11-08T04:58:58.328Z,41.80
2022-11-08T05:01:28.926Z,37.90
2022-11-08T05:03:59.208Z,40.13
2022-11-08T05:06:31.543Z,37.00
2022-11-08T05:09:01.235Z,36.45
2022-11-08T05:11:31.742Z,42.60
2022-11-08T05:14:05.518Z,40.88
2022-11-08T05:16:34.484Z,42.97
2022-11-08T05:19:03.489Z,43.65
2022-11-08T05:21:51.427Z,41.20
2022-11-08T05:24:20.326Z,38.42
2022-11-08T05:26:49.942Z,36.92
2022-11-08T05:29:18.839Z,43.75
2022-11-08T05:31:47.591Z,48.42
2022-11-08T05:34:16.488Z,40.03
2022-11-08T05:36:46.976Z,38.42
2022-11-08T05:39:15.900Z,40.70
2022-11-08T05:41:44.756Z,39.03
2022-11-08T05:44:13.669Z,46.35
2022-11-08T05:46:42.272Z,45.33
2022-11-08T05:49:11.026Z,42.63
2022-11-08T05:51:39.970Z,39.83
2022-11-08T05:54:10.227Z,35.33
2022-11-08T05:56:39.013Z,35.30
2022-11-08T05:59:07.641Z,39.90
2022-11-08T06:01:36.500Z,35.65
2022-11-08T06:04:05.867Z,33.03
2022-11-08T06:06:34.688Z,39.08
2022-11-08T06:09:03.541Z,44.38
2022-11-08T06:11:33.979Z,31.05
2022-11-08T06:14:02.727Z,28.73
2022-11-08T06:16:31.552Z,33.55
2022-11-08T06:19:00.228Z,35.35
2022-11-08T06:21:29.106Z,30.33
2022-11-08T06:23:57.845Z,34.60
2022-11-08T06:26:26.746Z,41.15
2022-11-08T06:28:57.014Z,32.28
2022-11-08T06:31:25.881Z,31.13
2022-11-08T06:33:54.763Z,32.80
2022-11-08T06:36:23.603Z,32.80
2022-11-08T06:38:55.965Z,39.30
2022-11-08T06:41:27.723Z,32.53
2022-11-08T06:43:57.967Z,34.75
2022-11-08T06:46:29.423Z,30.70
2022-11-08T06:48:58.523Z,30.58
2022-11-08T06:51:27.583Z,34.33
2022-11-08T06:53:56.900Z,31.20
2022-11-08T06:56:25.748Z,31.40
2022-11-08T06:58:54.806Z,34.65
2022-11-08T07:01:25.116Z,29.48
2022-11-08T07:03:53.995Z,28.10
2022-11-08T07:06:22.731Z,31.40
2022-11-08T07:08:51.299Z,36.47
2022-11-08T07:11:19.953Z,25.02
2022-11-08T07:13:49.141Z,29.73
2022-11-08T07:16:18.068Z,26.90
2022-11-08T07:18:48.505Z,29.25
2022-11-08T07:21:17.821Z,24.48
2022-11-08T07:23:46.504Z,24.85
2022-11-08T07:26:15.445Z,26.00
2022-11-08T07:28:44.207Z,29.23
2022-11-08T07:31:12.998Z,21.38
2022-11-08T07:33:42.204Z,24.10
2022-11-08T07:36:12.484Z,20.95
2022-11-08T07:38:41.214Z,22.87
2022-11-08T07:41:10.772Z,25.45
2022-11-08T07:43:39.557Z,24.50
2022-11-08T07:46:15.052Z,24.75
2022-11-08T07:48:43.966Z,29.15
2022-11-08T07:51:14.434Z,21.73
2022-11-08T07:53:46.881Z,27.73
2022-11-08T07:56:15.750Z,21.30
2022-11-08T07:58:44.452Z,23.85
2022-11-08T08:01:13.831Z,24.15
2022-11-08T08:03:42.619Z,25.67
2022-11-08T08:06:14.338Z,22.77
2022-11-08T08:08:43.273Z,26.83
2022-11-08T08:11:12.861Z,27.60
2022-11-08T08:13:41.764Z,25.65
2022-11-08T08:16:10.908Z,19.42
2022-11-08T08:18:39.613Z,25.75
2022-11-08T08:21:08.413Z,23.55
2022-11-08T08:23:38.530Z,23.83
2022-11-08T08:26:07.603Z,22.42
2022-11-08T08:28:36.489Z,33.53
2022-11-08T08:31:08.250Z,25.05
2022-11-08T08:33:38.088Z,27.55
2022-11-08T08:36:07.636Z,22.63
2022-11-08T08:38:44.096Z,27.45
2022-11-08T08:41:13.469Z,26.40
2022-11-08T08:43:42.153Z,28.67
2022-11-08T08:46:11.141Z,23.83
2022-11-08T08:48:39.908Z,25.88
2022-11-08T08:51:08.689Z,24.08
2022-11-08T08:53:42.291Z,22.92
2022-11-08T08:56:11.247Z,19.33
2022-11-08T08:58:40.511Z,19.45
2022-11-08T09:04:00.891Z,25.13
2022-11-08T09:06:29.687Z,19.40
2022-11-08T09:08:59.948Z,19.65
2022-11-08T09:11:28.643Z,21.67
2022-11-08T09:13:57.469Z,21.90
2022-11-08T09:16:26.265Z,21.98
2022-11-08T09:18:55.107Z,19.65
2022-11-08T09:21:24.089Z,17.88
2022-11-08T09:23:52.854Z,25.60
2022-11-08T09:26:23.007Z,24.80
2022-11-08T09:28:52.004Z,23.17
2022-11-08T09:31:20.725Z,19.58
2022-11-08T09:33:52.693Z,20.88
2022-11-08T09:36:21.540Z,22.20
2022-11-08T09:38:50.351Z,24.42
2022-11-08T09:41:51.408Z,26.60
2022-11-08T09:44:38.308Z,24.65
2022-11-08T09:47:14.907Z,23.30
2022-11-08T09:49:47.070Z,21.95
2022-11-08T09:52:26.204Z,20.55
2022-11-08T09:55:03.568Z,19.38
2022-11-08T09:57:47.739Z,20.40
2022-11-08T10:00:17.142Z,24.20
2022-11-08T10:02:46.028Z,21.10
2022-11-08T10:05:18.565Z,20.58
2022-11-08T10:07:55.710Z,18.00
2022-11-08T10:11:08.100Z,17.17
2022-11-08T10:13:50.309Z,23.77
2022-11-08T10:16:31.111Z,21.77
2022-11-08T10:19:21.890Z,17.30
2022-11-08T10:21:59.910Z,17.23
2022-11-08T10:24:36.626Z,17.65
2022-11-08T10:27:12.178Z,19.45
2022-11-08T10:29:45.806Z,19.38
2022-11-08T10:32:19.769Z,17.05
2022-11-08T10:34:56.644Z,19.58
2022-11-08T10:37:26.490Z,18.33
2022-11-08T10:39:59.665Z,22.35
2022-11-08T10:42:40.206Z,21.63
2022-11-08T10:45:11.771Z,17.90
2022-11-08T10:47:41.742Z,17.13
2022-11-08T10:50:15.940Z,23.95
2022-11-08T10:52:49.385Z,20.65
2022-11-08T10:55:33.742Z,18.02
2022-11-08T10:58:02.406Z,17.92
2022-11-08T11:00:34.744Z,19.75
2022-11-08T11:03:20.545Z,20.70
2022-11-08T11:06:00.289Z,16.60
2022-11-08T11:08:29.847Z,19.23
2022-11-08T11:11:23.286Z,22.85
2022-11-08T11:14:07.428Z,20.05
2022-11-08T11:16:38.988Z,21.15
2022-11-08T11:19:15.470Z,17.92
2022-11-08T11:21:46.042Z,19.40
2022-11-08T11:24:21.229Z,20.05
2022-11-08T11:27:01.328Z,17.98
2022-11-08T11:29:31.599Z,14.68
2022-11-08T11:32:23.069Z,20.63
2022-11-08T11:34:55.032Z,23.52
2022-11-08T11:37:32.711Z,16.60
2022-11-08T11:40:20.701Z,21.10
2022-11-08T11:42:58.272Z,21.10
2022-11-08T11:45:33.601Z,13.63
2022-11-08T11:48:12.504Z,22.73
2022-11-08T11:50:45.843Z,22.15
2022-11-08T11:53:22.972Z,18.90
2022-11-08T11:56:43.948Z,22.60
2022-11-08T11:59:41.835Z,18.77
2022-11-08T12:02:44.730Z,16.92
2022-11-08T12:05:33.575Z,21.88
2022-11-08T12:08:19.108Z,25.75
2022-11-08T12:11:01.373Z,28.98
2022-11-08T12:13:42.087Z,18.35
2022-11-08T12:16:18.823Z,26.02
2022-11-08T12:19:17.673Z,20.25
2022-11-08T12:21:59.120Z,22.60
2022-11-08T12:24:46.287Z,22.35
2022-11-08T12:27:25.826Z,20.98
2022-11-08T12:30:03.464Z,18.98
2022-11-08T12:32:57.968Z,22.02
2022-11-08T12:35:35.904Z,23.58
2022-11-08T12:38:24.781Z,26.50
2022-11-08T12:41:02.088Z,26.38
2022-11-08T12:43:46.046Z,21.38
2022-11-08T12:46:18.700Z,19.70
2022-11-08T12:49:08.679Z,21.48
2022-11-08T12:51:52.668Z,24.35
2022-11-08T12:54:31.027Z,22.17
2022-11-08T12:57:04.365Z,29.58
2022-11-08T12:59:38.243Z,23.63
2022-11-08T13:02:16.839Z,18.27
2022-11-08T13:04:54.067Z,26.92
2022-11-08T13:07:33.853Z,21.98
2022-11-08T13:10:12.690Z,21.83
2022-11-08T13:12:49.632Z,19.65
2022-11-08T13:15:21.845Z,18.33
2022-11-08T13:18:26.631Z,25.90
2022-11-08T13:20:55.466Z,24.00
2022-11-08T13:23:29.787Z,23.55
2022-11-08T13:26:24.486Z,24.50
2022-11-08T13:28:54.350Z,22.83
2022-11-08T13:31:48.523Z,23.67
2022-11-08T13:34:47.147Z,26.30
2022-11-08T13:37:30.163Z,18.52
2022-11-08T13:40:20.558Z,21.50
2022-11-08T13:43:24.464Z,16.85
2022-11-08T13:45:54.018Z,22.38
2022-11-08T13:49:05.534Z,29.02
2022-11-08T13:51:35.882Z,31.70
2022-11-08T13:54:06.458Z,28.98
2022-11-08T13:56:52.911Z,26.60
2022-11-08T13:59:57.348Z,23.95
2022-11-08T14:02:50.845Z,23.52
2022-11-08T14:05:31.097Z,20.15
2022-11-08T14:08:32.200Z,22.13
2022-11-08T14:11:28.912Z,14.27
2022-11-08T14:14:35.266Z,23.60
2022-11-08T14:17:35.108Z,23.58
2022-11-08T14:20:30.404Z,21.83
2022-11-08T14:23:00.908Z,21.35
2022-11-08T14:25:32.103Z,17.08
2022-11-08T14:30:32.470Z,21.00
2022-11-08T14:33:17.814Z,20.80
2022-11-08T14:35:55.141Z,21.00
2022-11-08T14:38:24.644Z,21.90
2022-11-08T14:40:56.403Z,20.30
2022-11-08T14:43:27.168Z,14.45
2022-11-08T14:45:58.303Z,19.60
2022-11-08T14:48:30.704Z,22.05
2022-11-08T14:51:06.201Z,27.23
2022-11-08T14:53:45.835Z,16.92
2022-11-08T14:56:19.108Z,26.10
2022-11-08T14:58:49.729Z,22.88
2022-11-08T15:01:22.517Z,19.10
2022-11-08T15:03:57.577Z,18.83
2022-11-08T15:06:34.169Z,28.25
2022-11-08T15:09:04.751Z,22.52
2022-11-08T15:11:35.523Z,17.25
2022-11-08T15:14:06.924Z,17.50
2022-11-08T15:16:43.647Z,16.88
2022-11-08T15:19:28.863Z,16.30
2022-11-08T15:21:58.312Z,18.17
2022-11-08T15:24:35.842Z,14.48
2022-11-08T15:27:15.510Z,14.15
2022-11-08T15:29:52.550Z,13.20
2022-11-08T15:32:23.219Z,21.52
2022-11-08T15:34:57.468Z,12.07
2022-11-08T15:37:31.508Z,15.90
2022-11-08T15:40:03.160Z,16.02
2022-11-08T15:42:32.068Z,8.52
2022-11-08T15:45:03.049Z,10.88
2022-11-08T15:47:39.077Z,13.25
2022-11-08T15:50:19.050Z,16.00
2022-11-08T15:52:49.593Z,14.65
2022-11-08T15:55:20.298Z,11.80
2022-11-08T15:57:50.610Z,14.70
2022-11-08T16:00:24.395Z,11.40
2022-11-08T16:02:54.072Z,12.95
2022-11-08T16:05:25.792Z,18.92
2022-11-08T16:07:55.371Z,14.50
2022-11-08T16:10:28.671Z,12.10
2022-11-08T16:13:01.812Z,20.42
2022-11-08T16:15:32.708Z,14.30
2022-11-08T16:18:02.053Z,11.52
2022-11-08T16:20:34.597Z,14.60
2022-11-08T16:23:05.150Z,13.20
2022-11-08T16:25:38.075Z,9.65
2022-11-08T16:28:09.304Z,16.23
2022-11-08T16:30:38.097Z,18.95
2022-11-08T16:33:19.699Z,14.00
2022-11-08T16:35:55.512Z,14.80
2022-11-08T16:38:27.524Z,14.38
2022-11-08T16:40:56.809Z,19.60
2022-11-08T16:43:25.461Z,19.20
2022-11-08T16:46:09.406Z,17.25
2022-11-08T16:48:40.730Z,15.45
2022-11-08T16:51:19.072Z,12.63
2022-11-08T16:53:47.833Z,19.90
2022-11-08T16:56:16.730Z,14.65
2022-11-08T16:58:46.113Z,15.63
2022-11-08T17:01:18.195Z,24.65
2022-11-08T17:03:46.945Z,20.33
2022-11-08T17:06:19.248Z,20.77
2022-11-08T17:08:48.203Z,19.83
2022-11-08T17:11:19.800Z,12.68
2022-11-08T17:13:49.294Z,11.00
2022-11-08T17:16:18.972Z,13.55
2022-11-08T17:18:52.396Z,12.73
2022-11-08T17:24:19.872Z,20.67
2022-11-08T17:26:51.119Z,17.77
2022-11-08T17:29:20.112Z,15.38
2022-11-08T17:31:49.171Z,19.70
2022-11-08T17:34:18.054Z,17.55
2022-11-08T17:36:48.109Z,21.92
2022-11-08T17:39:17.150Z,18.57
2022-11-08T17:41:45.828Z,15.93
2022-11-08T17:44:14.829Z,14.93
2022-11-08T17:46:43.911Z,19.23
2022-11-08T17:49:12.574Z,16.88
2022-11-08T17:51:41.231Z,15.43
2022-11-08T17:54:11.887Z,15.20
2022-11-08T17:56:40.543Z,17.83
2022-11-08T17:59:12.699Z,20.05
2022-11-08T18:01:41.778Z,19.52
2022-11-08T18:04:12.132Z,19.15
2022-11-08T18:06:40.885Z,15.43
2022-11-08T18:09:10.735Z,16.85
2022-11-08T18:11:47.699Z,22.70
2022-11-08T18:14:17.056Z,13.75
2022-11-08T18:16:45.937Z,18.42
2022-11-08T18:19:14.699Z,10.05
2022-11-08T18:21:43.477Z,16.33
2022-11-08T18:24:12.323Z,12.68
2022-11-08T18:26:42.699Z,19.42
2022-11-08T18:29:11.576Z,17.23
2022-11-08T18:31:40.371Z,20.25
2022-11-08T18:34:10.845Z,17.17
2022-11-08T18:36:39.614Z,18.48
2022-11-08T18:39:08.314Z,17.27
2022-11-08T18:41:37.084Z,13.00
2022-11-08T18:44:07.424Z,10.13
2022-11-08T18:46:41.854Z,13.13
2022-11-08T18:49:12.119Z,9.20
2022-11-08T18:51:41.361Z,6.57
2022-11-08T18:54:10.139Z,8.77
2022-11-08T18:56:38.941Z,7.68
2022-11-08T18:59:09.435Z,13.38
2022-11-08T19:01:38.264Z,8.05
2022-11-08T19:04:07.214Z,11.15
2022-11-08T19:06:35.853Z,12.10
2022-11-08T19:09:05.996Z,9.57
2022-11-08T19:11:34.813Z,9.40
2022-11-08T19:14:03.492Z,7.07
2022-11-08T19:16:34.968Z,10.23
2022-11-08T19:19:03.609Z,12.70
2022-11-08T19:21:34.564Z,10.20
2022-11-08T19:26:32.982Z,10.98
2022-11-08T19:29:03.320Z,6.47
2022-11-08T19:31:35.100Z,6.97
2022-11-08T19:34:04.011Z,9.60
2022-11-08T19:36:33.791Z,13.30
2022-11-08T19:39:02.529Z,8.13
2022-11-08T19:41:31.161Z,9.45
2022-11-08T19:43:59.988Z,8.77
2022-11-08T19:46:31.275Z,13.10
2022-11-08T19:49:03.669Z,10.85
2022-11-08T19:51:34.846Z,11.50
2022-11-08T19:54:05.204Z,19.15
2022-11-08T19:59:23.631Z,10.07
2022-11-08T20:01:52.477Z,15.63
2022-11-08T20:04:23.223Z,17.02
2022-11-08T20:06:52.048Z,15.82
2022-11-08T20:09:24.623Z,20.58
2022-11-08T20:11:57.077Z,20.63
2022-11-08T20:14:25.907Z,22.02
2022-11-08T20:16:54.668Z,20.50
2022-11-08T20:19:24.669Z,18.55
2022-11-08T20:21:56.830Z,19.30
2022-11-08T20:24:25.534Z,15.93
2022-11-08T20:26:55.510Z,18.83
2022-11-08T20:29:24.510Z,19.45
2022-11-08T20:31:53.509Z,18.50
2022-11-08T20:34:22.528Z,21.15
2022-11-08T20:36:52.746Z,18.13
2022-11-08T20:39:21.766Z,16.02
2022-11-08T20:41:50.467Z,17.98
2022-11-08T20:44:20.307Z,18.05
2022-11-08T20:46:48.911Z,16.35
2022-11-08T20:49:17.730Z,14.65
2022-11-08T20:51:49.327Z,17.08
2022-11-08T20:54:19.587Z,13.48
2022-11-08T20:56:48.327Z,11.32
2022-11-08T20:59:16.887Z,10.25
2022-11-08T21:01:45.878Z,9.52
2022-11-08T21:04:15.127Z,7.25
2022-11-08T21:06:44.315Z,9.63
2022-11-08T21:09:37.427Z,7.50
2022-11-08T21:12:03.550Z,5.00
2022-11-08T21:14:32.747Z,7.47
2022-11-08T21:19:52.092Z,6.15
2022-11-08T21:22:20.970Z,7.47
2022-11-08T21:24:50.259Z,7.55
2022-11-08T21:27:20.338Z,6.32
2022-11-08T21:29:49.108Z,8.30
2022-11-08T21:32:17.789Z,7.18
2022-11-08T21:34:47.380Z,8.32
2022-11-08T21:37:16.637Z,8.02
2022-11-08T21:39:45.455Z,8.27
2022-11-08T21:42:14.239Z,9.32
2022-11-08T21:44:44.449Z,8.93
2022-11-08T21:47:13.331Z,8.27
2022-11-08T21:49:41.987Z,7.70
2022-11-08T21:52:10.771Z,8.50
2022-11-08T21:54:40.733Z,8.77
2022-11-08T21:57:09.608Z,10.07
2022-11-08T21:59:38.278Z,8.20
2022-11-08T22:02:09.250Z,9.15
2022-11-08T22:04:38.320Z,9.23
2022-11-08T22:07:07.049Z,7.80
2022-11-08T22:09:35.818Z,8.73
2022-11-08T22:12:04.777Z,9.57
2022-11-08T22:14:33.451Z,7.30
2022-11-08T22:17:02.257Z,7.70
2022-11-08T22:19:32.559Z,7.13
2022-11-08T22:22:01.171Z,7.55
2022-11-08T22:24:30.374Z,9.93
2022-11-08T22:26:59.192Z,11.73
2022-11-08T22:29:27.978Z,9.38
2022-11-08T22:31:56.828Z,11.40
2022-11-08T22:34:25.631Z,10.43
2022-11-08T22:36:56.088Z,10.48
2022-11-08T22:39:25.126Z,9.48
2022-11-08T22:41:56.186Z,10.60
2022-11-08T22:44:27.645Z,9.20
2022-11-08T22:46:56.465Z,9.23
2022-11-08T22:49:25.222Z,11.02
2022-11-08T22:51:55.405Z,11.43
2022-11-08T22:54:24.198Z,9.18
2022-11-08T22:56:53.047Z,10.65
2022-11-08T22:59:21.838Z,12.80
2022-11-08T23:01:50.646Z,11.63
2022-11-08T23:04:19.607Z,11.15
2022-11-08T23:06:48.304Z,11.63
2022-11-08T23:09:18.471Z,13.07
2022-11-08T23:12:04.263Z,14.27
2022-11-08T23:14:50.388Z,13.38
2022-11-08T23:17:19.065Z,13.65
2022-11-08T23:20:04.873Z,14.88
2022-11-08T23:22:59.069Z,14.88
2022-11-08T23:25:29.346Z,17.02
2022-11-08T23:28:15.094Z,16.48
2022-11-08T23:31:01.942Z,13.45
2022-11-08T23:33:30.574Z,14.07
2022-11-08T23:36:16.009Z,16.92
2022-11-08T23:38:45.224Z,15.05
2022-11-08T23:41:47.285Z,17.95
2022-11-08T23:44:27.985Z,13.10
2022-11-08T23:46:58.387Z,15.43
2022-11-08T23:49:27.432Z,15.32
2022-11-08T23:51:56.375Z,14.18
2022-11-08T23:54:25.011Z,15.13
2022-11-08T23:56:55.221Z,17.35
2022-11-08T23:59:23.906Z,17.77
